createdAt,value
2023-05-09T00:01:48.082Z,9.05
2023-05-09T00:04:11.474Z,8.97
2023-05-09T00:06:34.300Z,8.90
2023-05-09T00:08:56.935Z,8.96
2023-05-09T00:11:19.639Z,8.90
2023-05-09T00:13:44.218Z,8.96
2023-05-09T00:16:07.174Z,8.91
2023-05-09T00:18:31.285Z,8.90
2023-05-09T00:20:54.304Z,8.91
2023-05-09T00:23:17.032Z,8.92
2023-05-09T00:25:39.809Z,8.91
2023-05-09T00:28:02.560Z,8.80
2023-05-09T00:30:25.464Z,8.94
2023-05-09T00:32:48.192Z,8.88
2023-05-09T00:35:10.940Z,8.96
2023-05-09T00:37:33.725Z,9.05
2023-05-09T00:39:56.318Z,9.10
2023-05-09T00:42:19.140Z,9.21
2023-05-09T00:44:41.763Z,9.14
2023-05-09T00:47:04.607Z,9.10
2023-05-09T00:49:27.474Z,9.07
2023-05-09T00:51:50.398Z,9.11
2023-05-09T00:54:13.477Z,9.00
2023-05-09T00:56:36.278Z,8.80
2023-05-09T00:58:59.522Z,8.83
2023-05-09T01:01:22.448Z,8.73
2023-05-09T01:03:45.765Z,8.54
2023-05-09T01:06:46.941Z,8.56
2023-05-09T01:09:56.020Z,8.46
2023-05-09T01:12:40.246Z,8.52
2023-05-09T01:15:44.088Z,8.45
2023-05-09T01:18:27.453Z,8.48
2023-05-09T01:21:03.884Z,8.46
2023-05-09T01:23:30.313Z,8.50
2023-05-09T01:26:02.103Z,8.41
2023-05-09T01:28:57.589Z,8.38
2023-05-09T01:31:20.687Z,8.38
2023-05-09T01:33:48.736Z,8.38
2023-05-09T01:36:17.125Z,8.46
2023-05-09T01:38:42.319Z,8.33
2023-05-09T01:41:07.235Z,8.36
2023-05-09T01:43:31.093Z,8.45
2023-05-09T01:45:54.033Z,8.49
2023-05-09T01:48:17.475Z,8.54
2023-05-09T01:50:41.462Z,8.49
2023-05-09T01:53:06.397Z,8.50
2023-05-09T01:55:32.802Z,8.43
2023-05-09T01:57:57.595Z,8.41
2023-05-09T02:00:21.318Z,8.35
2023-05-09T02:02:44.778Z,8.33
2023-05-09T02:05:10.344Z,8.28
2023-05-09T02:07:33.991Z,8.25
2023-05-09T02:09:58.606Z,8.24
2023-05-09T02:12:22.097Z,8.11
2023-05-09T02:14:44.735Z,8.09
2023-05-09T02:17:09.573Z,8.02
2023-05-09T02:19:35.441Z,8.04
2023-05-09T02:21:58.147Z,8.12
2023-05-09T02:24:21.298Z,8.15
2023-05-09T02:26:44.185Z,8.15
2023-05-09T02:29:08.642Z,8.06
2023-05-09T02:31:32.374Z,7.95
2023-05-09T02:33:55.417Z,7.87
2023-05-09T02:36:19.782Z,7.97
2023-05-09T02:38:44.093Z,7.99
2023-05-09T02:41:07.119Z,7.99
2023-05-09T02:43:29.765Z,8.06
2023-05-09T02:45:52.468Z,7.99
2023-05-09T02:48:15.232Z,7.91
2023-05-09T02:50:39.578Z,7.87
2023-05-09T02:53:02.358Z,7.88
2023-05-09T02:55:25.012Z,7.76
2023-05-09T02:57:47.905Z,7.73
2023-05-09T03:00:12.392Z,7.67
2023-05-09T03:02:36.225Z,7.62
2023-05-09T03:04:59.990Z,7.57
2023-05-09T03:07:22.776Z,7.49
2023-05-09T03:09:45.888Z,7.35
2023-05-09T03:12:09.057Z,7.32
2023-05-09T03:14:32.266Z,7.30
2023-05-09T03:16:55.538Z,7.33
2023-05-09T03:19:26.611Z,7.49
2023-05-09T03:21:49.345Z,7.49
2023-05-09T03:24:12.207Z,7.49
2023-05-09T03:26:37.717Z,7.66
2023-05-09T03:29:00.351Z,7.64
2023-05-09T03:31:23.051Z,7.73
2023-05-09T03:33:45.780Z,7.81
2023-05-09T03:36:08.996Z,7.83
2023-05-09T03:38:32.772Z,7.88
2023-05-09T03:40:55.487Z,7.95
2023-05-09T03:43:18.877Z,7.99
2023-05-09T03:45:41.625Z,8.05
2023-05-09T03:48:08.641Z,8.09
2023-05-09T03:50:34.423Z,8.21
2023-05-09T03:52:57.431Z,8.33
2023-05-09T03:55:20.227Z,8.53
2023-05-09T03:57:42.905Z,8.60
2023-05-09T04:00:06.939Z,8.57
2023-05-09T04:02:37.276Z,8.73
2023-05-09T04:05:01.073Z,8.60
2023-05-09T04:07:23.822Z,8.76
2023-05-09T04:09:47.732Z,8.81
2023-05-09T04:12:10.474Z,8.92
2023-05-09T04:14:33.258Z,9.01
2023-05-09T04:16:56.007Z,8.97
2023-05-09T04:19:18.721Z,9.12
2023-05-09T04:21:41.390Z,9.60
2023-05-09T04:24:04.631Z,10.05
2023-05-09T04:26:47.633Z,10.27
2023-05-09T04:29:14.165Z,10.56
2023-05-09T04:31:37.636Z,10.81
2023-05-09T04:34:02.311Z,11.23
2023-05-09T04:36:29.013Z,11.07
2023-05-09T04:38:53.790Z,11.11
2023-05-09T04:41:20.241Z,10.80
2023-05-09T04:43:43.496Z,10.80
2023-05-09T04:46:06.299Z,10.62
2023-05-09T04:48:29.156Z,10.63
2023-05-09T04:50:51.802Z,10.49
2023-05-09T04:53:14.701Z,10.53
2023-05-09T04:55:38.079Z,10.70
2023-05-09T04:58:00.879Z,10.83
2023-05-09T05:00:23.805Z,10.79
2023-05-09T05:02:47.185Z,10.89
2023-05-09T05:05:12.133Z,10.81
2023-05-09T05:07:38.271Z,10.84
2023-05-09T05:10:01.760Z,10.83
2023-05-09T05:12:25.372Z,10.84
2023-05-09T05:14:48.401Z,10.83
2023-05-09T05:17:16.862Z,11.06
2023-05-09T05:19:39.598Z,11.07
2023-05-09T05:22:03.754Z,11.26
2023-05-09T05:24:28.249Z,11.24
2023-05-09T05:26:52.437Z,11.35
2023-05-09T05:29:15.067Z,11.59
2023-05-09T05:31:37.787Z,11.78
2023-05-09T05:34:00.571Z,11.79
2023-05-09T05:36:23.485Z,11.99
2023-05-09T05:38:46.167Z,12.14
2023-05-09T05:41:11.352Z,12.13
2023-05-09T05:43:35.750Z,12.51
2023-05-09T05:45:58.615Z,13.05
2023-05-09T05:48:24.458Z,12.87
2023-05-09T05:50:49.317Z,12.81
2023-05-09T05:53:15.215Z,12.55
2023-05-09T05:55:38.118Z,12.48
2023-05-09T05:58:01.819Z,12.40
2023-05-09T06:00:24.550Z,12.47
2023-05-09T06:02:55.330Z,12.52
2023-05-09T06:05:23.957Z,12.40
2023-05-09T06:07:48.002Z,12.30
2023-05-09T06:10:11.325Z,12.16
2023-05-09T06:12:34.228Z,12.20
2023-05-09T06:14:56.969Z,12.81
2023-05-09T06:17:19.812Z,13.07
2023-05-09T06:19:42.767Z,13.16
2023-05-09T06:22:05.536Z,13.19
2023-05-09T06:24:35.640Z,12.62
2023-05-09T06:26:59.494Z,12.79
2023-05-09T06:33:57.476Z,13.12
2023-05-09T06:36:20.369Z,12.93
2023-05-09T06:38:43.030Z,13.22
2023-05-09T06:41:06.144Z,12.95
2023-05-09T06:43:29.934Z,13.16
2023-05-09T06:45:53.179Z,13.50
2023-05-09T06:48:15.759Z,13.79
2023-05-09T06:50:38.508Z,13.58
2023-05-09T06:53:01.122Z,13.47
2023-05-09T06:55:24.617Z,13.57
2023-05-09T06:57:47.440Z,13.58
2023-05-09T07:00:10.846Z,13.70
2023-05-09T07:02:33.583Z,13.81
2023-05-09T07:04:56.374Z,14.02
2023-05-09T07:07:20.209Z,13.85
2023-05-09T07:09:43.206Z,13.97
2023-05-09T07:12:06.289Z,13.73
2023-05-09T07:14:28.966Z,13.68
2023-05-09T07:16:51.740Z,13.79
2023-05-09T07:19:14.680Z,13.97
2023-05-09T07:21:37.333Z,13.75
2023-05-09T07:24:00.039Z,13.46
2023-05-09T07:26:22.803Z,13.55
2023-05-09T07:28:45.603Z,13.68
2023-05-09T07:31:09.435Z,13.67
2023-05-09T07:33:32.863Z,13.75
2023-05-09T07:35:55.649Z,14.08
2023-05-09T07:38:18.439Z,14.08
2023-05-09T07:40:41.299Z,14.15
2023-05-09T07:43:03.996Z,13.92
2023-05-09T07:45:26.645Z,14.20
2023-05-09T07:47:49.304Z,14.53
2023-05-09T07:50:12.059Z,14.85
2023-05-09T07:52:34.913Z,14.77
2023-05-09T07:54:57.813Z,14.81
2023-05-09T07:57:20.508Z,14.95
2023-05-09T07:59:46.617Z,15.14
2023-05-09T08:02:09.385Z,15.31
2023-05-09T08:04:32.321Z,15.32
2023-05-09T08:06:55.096Z,15.19
2023-05-09T08:09:18.753Z,15.25
2023-05-09T08:11:41.452Z,15.18
2023-05-09T08:14:04.398Z,14.94
2023-05-09T08:16:27.151Z,14.91
2023-05-09T08:18:49.826Z,14.92
2023-05-09T08:21:12.538Z,15.01
2023-05-09T08:23:35.417Z,15.12
2023-05-09T08:25:59.168Z,15.35
2023-05-09T08:28:24.505Z,15.22
2023-05-09T08:30:47.275Z,15.21
2023-05-09T08:33:09.950Z,15.43
2023-05-09T08:35:32.796Z,15.46
2023-05-09T08:37:55.506Z,15.52
2023-05-09T08:40:18.385Z,15.46
2023-05-09T08:42:44.379Z,15.47
2023-05-09T08:45:11.177Z,15.49
2023-05-09T08:47:36.161Z,15.60
2023-05-09T08:49:58.988Z,15.46
2023-05-09T08:52:21.900Z,15.67
2023-05-09T08:54:44.982Z,15.74
2023-05-09T08:57:07.910Z,15.73
2023-05-09T08:59:33.307Z,15.69
2023-05-09T09:01:56.179Z,15.87
2023-05-09T09:04:19.014Z,15.89
2023-05-09T09:06:42.097Z,16.07
2023-05-09T09:09:07.202Z,16.17
2023-05-09T09:11:30.391Z,16.24
2023-05-09T09:13:55.026Z,16.14
2023-05-09T09:16:20.946Z,16.15
2023-05-09T09:18:44.633Z,16.26
2023-05-09T09:21:11.026Z,16.39
2023-05-09T09:23:34.196Z,16.42
2023-05-09T09:26:01.893Z,16.70
2023-05-09T09:28:24.741Z,16.76
2023-05-09T09:30:48.404Z,16.60
2023-05-09T09:33:19.137Z,16.45
2023-05-09T09:35:43.604Z,16.59
2023-05-09T09:38:06.445Z,16.66
2023-05-09T09:40:29.109Z,17.02
2023-05-09T09:42:52.663Z,17.10
2023-05-09T09:45:17.115Z,17.13
2023-05-09T09:47:41.123Z,17.24
2023-05-09T09:50:18.334Z,17.69
2023-05-09T09:52:51.489Z,17.69
2023-05-09T09:55:14.268Z,17.21
2023-05-09T09:57:38.503Z,17.25
2023-05-09T10:00:01.491Z,17.41
2023-05-09T10:02:24.938Z,17.65
2023-05-09T10:04:48.010Z,17.63
2023-05-09T10:07:13.789Z,18.00
2023-05-09T10:09:41.074Z,17.99
2023-05-09T10:12:06.463Z,17.97
2023-05-09T10:14:33.579Z,18.03
2023-05-09T10:16:59.472Z,18.28
2023-05-09T10:19:23.573Z,18.28
2023-05-09T10:22:14.736Z,18.30
2023-05-09T10:25:01.549Z,18.55
2023-05-09T10:27:27.749Z,18.64
2023-05-09T10:30:02.879Z,18.98
2023-05-09T10:32:32.934Z,18.89
2023-05-09T10:35:02.013Z,18.69
2023-05-09T10:37:25.335Z,18.34
2023-05-09T10:39:53.980Z,18.14
2023-05-09T10:42:17.797Z,18.09
2023-05-09T10:44:41.228Z,17.86
2023-05-09T10:47:04.410Z,17.59
2023-05-09T10:49:27.956Z,17.86
2023-05-09T10:51:53.736Z,17.97
2023-05-09T10:54:30.581Z,18.07
2023-05-09T10:56:54.091Z,17.89
2023-05-09T10:59:43.004Z,17.83
2023-05-09T11:02:13.003Z,17.94
2023-05-09T11:04:35.850Z,18.06
2023-05-09T11:07:02.277Z,18.37
2023-05-09T11:09:35.042Z,18.49
2023-05-09T11:11:58.757Z,18.73
2023-05-09T11:14:38.429Z,18.95
2023-05-09T11:17:04.401Z,18.82
2023-05-09T11:19:57.921Z,19.22
2023-05-09T11:22:28.332Z,19.64
2023-05-09T11:25:00.027Z,19.81
2023-05-09T11:27:25.648Z,19.02
2023-05-09T11:29:56.328Z,19.10
2023-05-09T11:32:20.318Z,19.22
2023-05-09T11:34:45.256Z,18.95
2023-05-09T11:37:11.296Z,19.19
2023-05-09T11:39:33.994Z,19.10
2023-05-09T11:41:57.195Z,18.72
2023-05-09T11:44:21.370Z,17.93
2023-05-09T11:46:45.274Z,17.73
2023-05-09T11:49:09.587Z,17.80
2023-05-09T11:51:38.270Z,18.24
2023-05-09T11:54:01.035Z,18.13
2023-05-09T11:57:05.946Z,18.21
2023-05-09T11:59:28.758Z,18.24
2023-05-09T12:01:51.692Z,18.11
2023-05-09T12:04:14.627Z,17.85
2023-05-09T12:06:37.824Z,17.71
2023-05-09T12:09:00.627Z,18.04
2023-05-09T12:11:24.620Z,18.14
2023-05-09T12:13:49.417Z,18.27
2023-05-09T12:16:12.218Z,18.21
2023-05-09T12:18:35.225Z,18.11
2023-05-09T12:20:57.966Z,18.18
2023-05-09T12:23:20.761Z,18.13
2023-05-09T12:26:09.830Z,18.55
2023-05-09T12:28:33.125Z,18.76
2023-05-09T12:30:56.426Z,18.99
2023-05-09T12:33:19.692Z,18.88
2023-05-09T12:35:49.073Z,18.44
2023-05-09T12:38:15.910Z,18.44
2023-05-09T12:40:38.705Z,18.79
2023-05-09T12:43:03.089Z,19.24
2023-05-09T12:45:26.057Z,19.24
2023-05-09T12:47:52.209Z,19.47
2023-05-09T12:50:15.190Z,19.41
2023-05-09T12:52:46.942Z,18.79
2023-05-09T12:55:21.885Z,18.37
2023-05-09T12:57:58.722Z,18.10
2023-05-09T13:00:21.853Z,18.17
2023-05-09T13:02:44.960Z,18.14
2023-05-09T13:05:11.644Z,18.33
2023-05-09T13:07:48.307Z,18.82
2023-05-09T13:10:15.849Z,18.62
2023-05-09T13:12:39.617Z,18.59
2023-05-09T13:15:02.303Z,18.62
2023-05-09T13:17:26.102Z,18.36
2023-05-09T13:19:49.536Z,18.43
2023-05-09T13:22:12.618Z,18.31
2023-05-09T13:24:35.509Z,18.31
2023-05-09T13:26:58.186Z,18.82
2023-05-09T13:29:21.140Z,19.12
2023-05-09T13:31:43.796Z,19.50
2023-05-09T13:34:06.509Z,19.61
2023-05-09T13:36:29.174Z,19.71
2023-05-09T13:38:51.882Z,19.46
2023-05-09T13:41:20.195Z,19.57
2023-05-09T13:43:43.064Z,19.16
2023-05-09T13:46:05.856Z,19.22
2023-05-09T13:48:28.834Z,19.13
2023-05-09T13:50:51.704Z,19.09
2023-05-09T13:53:14.389Z,18.89
2023-05-09T13:55:37.077Z,18.65
2023-05-09T13:57:59.837Z,18.66
2023-05-09T14:00:24.771Z,19.03
2023-05-09T14:02:48.254Z,19.16
2023-05-09T14:05:10.905Z,19.07
2023-05-09T14:07:33.803Z,18.72
2023-05-09T14:10:10.553Z,18.69
2023-05-09T14:12:34.451Z,18.72
2023-05-09T14:14:57.087Z,18.71
2023-05-09T14:17:19.805Z,19.19
2023-05-09T14:19:42.594Z,19.06
2023-05-09T14:22:05.678Z,18.72
2023-05-09T14:24:30.890Z,18.66
2023-05-09T14:26:53.618Z,18.48
2023-05-09T14:29:16.814Z,18.41
2023-05-09T14:31:39.650Z,18.49
2023-05-09T14:34:02.408Z,18.61
2023-05-09T14:36:25.387Z,18.71
2023-05-09T14:38:48.234Z,18.85
2023-05-09T14:41:10.879Z,18.72
2023-05-09T14:43:33.562Z,18.91
2023-05-09T14:45:57.780Z,19.16
2023-05-09T14:48:20.468Z,19.19
2023-05-09T14:50:43.275Z,19.23
2023-05-09T14:53:06.034Z,18.88
2023-05-09T14:55:28.931Z,18.84
2023-05-09T14:57:51.670Z,18.81
2023-05-09T15:00:21.265Z,18.71
2023-05-09T15:02:45.164Z,18.96
2023-05-09T15:05:08.600Z,18.73
2023-05-09T15:07:31.407Z,18.72
2023-05-09T15:09:54.590Z,18.79
2023-05-09T15:12:17.266Z,18.69
2023-05-09T15:14:39.928Z,18.64
2023-05-09T15:17:04.352Z,18.65
2023-05-09T15:19:31.151Z,18.69
2023-05-09T15:21:53.744Z,18.82
2023-05-09T15:24:17.298Z,18.84
2023-05-09T15:26:40.255Z,19.19
2023-05-09T15:29:02.908Z,19.19
2023-05-09T15:31:25.922Z,19.24
2023-05-09T15:33:48.637Z,19.27
2023-05-09T15:36:11.425Z,19.20
2023-05-09T15:38:34.706Z,18.91
2023-05-09T15:40:57.427Z,18.59
2023-05-09T15:43:20.129Z,18.38
2023-05-09T15:45:46.858Z,18.14
2023-05-09T15:48:09.464Z,18.21
2023-05-09T15:50:32.328Z,18.24
2023-05-09T15:52:55.038Z,18.10
2023-05-09T15:55:17.979Z,18.04
2023-05-09T15:57:40.728Z,18.09
2023-05-09T16:00:05.799Z,17.96
2023-05-09T16:02:35.323Z,17.83
2023-05-09T16:04:58.063Z,17.71
2023-05-09T16:07:20.944Z,17.62
2023-05-09T16:09:44.785Z,17.62
2023-05-09T16:12:07.630Z,17.61
2023-05-09T16:14:30.360Z,17.62
2023-05-09T16:16:53.930Z,17.61
2023-05-09T16:19:16.599Z,17.66
2023-05-09T16:21:39.737Z,17.82
2023-05-09T16:24:03.298Z,17.89
2023-05-09T16:26:26.248Z,17.78
2023-05-09T16:28:48.922Z,17.69
2023-05-09T16:31:11.526Z,17.58
2023-05-09T16:33:35.049Z,17.55
2023-05-09T16:35:58.845Z,17.46
2023-05-09T16:38:21.407Z,17.41
2023-05-09T16:40:43.947Z,17.35
2023-05-09T16:43:07.375Z,17.18
2023-05-09T16:45:30.065Z,17.17
2023-05-09T16:47:54.161Z,17.06
2023-05-09T16:50:17.096Z,17.00
2023-05-09T16:52:39.939Z,16.91
2023-05-09T16:55:02.594Z,16.86
2023-05-09T16:57:26.403Z,16.77
2023-05-09T16:59:49.118Z,16.69
2023-05-09T17:02:11.904Z,16.66
2023-05-09T17:04:36.741Z,16.60
2023-05-09T17:07:00.267Z,16.53
2023-05-09T17:09:22.853Z,16.49
2023-05-09T17:11:45.547Z,16.45
2023-05-09T17:14:08.132Z,16.48
2023-05-09T17:16:30.915Z,16.48
2023-05-09T17:18:53.839Z,16.38
2023-05-09T17:21:17.348Z,16.38
2023-05-09T17:23:39.978Z,16.31
2023-05-09T17:26:03.802Z,16.28
2023-05-09T17:28:27.063Z,16.32
2023-05-09T17:30:49.927Z,16.19
2023-05-09T17:33:12.743Z,16.14
2023-05-09T17:35:57.442Z,16.18
2023-05-09T17:38:20.160Z,16.07
2023-05-09T17:40:43.516Z,16.18
2023-05-09T17:43:06.234Z,16.08
2023-05-09T17:45:28.915Z,16.14
2023-05-09T17:47:51.753Z,16.04
2023-05-09T17:50:17.032Z,16.01
2023-05-09T17:52:40.133Z,15.96
2023-05-09T17:55:04.043Z,15.83
2023-05-09T17:57:27.450Z,15.79
2023-05-09T17:59:51.850Z,15.84
2023-05-09T18:02:14.599Z,15.79
2023-05-09T18:04:37.269Z,15.76
2023-05-09T18:07:00.535Z,15.70
2023-05-09T18:09:23.802Z,15.67
2023-05-09T18:11:46.352Z,15.67
2023-05-09T18:14:09.044Z,15.56
2023-05-09T18:16:34.060Z,15.53
2023-05-09T18:18:56.829Z,15.53
2023-05-09T18:21:19.882Z,15.46
2023-05-09T18:23:42.499Z,15.42
2023-05-09T18:26:05.157Z,15.35
2023-05-09T18:28:28.940Z,15.32
2023-05-09T18:30:55.591Z,15.26
2023-05-09T18:33:18.219Z,15.19
2023-05-09T18:35:41.150Z,15.16
2023-05-09T18:38:03.890Z,15.11
2023-05-09T18:40:26.599Z,15.04
2023-05-09T18:42:49.262Z,14.94
2023-05-09T18:45:13.332Z,14.81
2023-05-09T18:47:36.593Z,14.77
2023-05-09T18:50:02.357Z,14.74
2023-05-09T18:52:25.515Z,14.68
2023-05-09T18:54:49.472Z,14.66
2023-05-09T18:57:12.286Z,14.63
2023-05-09T18:59:35.029Z,14.60
2023-05-09T19:01:58.066Z,14.53
2023-05-09T19:04:21.719Z,14.51
2023-05-09T19:06:45.036Z,14.46
2023-05-09T19:09:07.971Z,14.41
2023-05-09T19:11:30.910Z,14.39
2023-05-09T19:13:54.216Z,14.37
2023-05-09T19:16:19.838Z,14.34
2023-05-09T19:18:43.333Z,14.29
2023-05-09T19:21:06.353Z,14.26
2023-05-09T19:23:29.885Z,14.25
2023-05-09T19:25:54.077Z,14.19
2023-05-09T19:28:18.906Z,14.12
2023-05-09T19:30:41.770Z,14.08
2023-05-09T19:33:04.876Z,14.08
2023-05-09T19:35:27.748Z,14.01
2023-05-09T19:37:50.709Z,13.92
2023-05-09T19:40:13.946Z,13.91
2023-05-09T19:42:38.371Z,13.88
2023-05-09T19:45:03.396Z,13.84
2023-05-09T19:47:27.204Z,13.79
2023-05-09T19:49:50.122Z,13.77
2023-05-09T19:52:13.136Z,13.78
2023-05-09T19:54:36.071Z,13.79
2023-05-09T19:56:58.938Z,13.78
2023-05-09T19:59:21.975Z,13.74
2023-05-09T20:01:44.863Z,13.64
2023-05-09T20:04:07.870Z,13.61
2023-05-09T20:06:30.737Z,13.55
2023-05-09T20:08:53.448Z,13.50
2023-05-09T20:11:16.256Z,13.51
2023-05-09T20:13:38.885Z,13.40
2023-05-09T20:16:03.322Z,13.37
2023-05-09T20:18:26.869Z,13.33
2023-05-09T20:20:50.010Z,13.30
2023-05-09T20:23:12.930Z,13.30
2023-05-09T20:25:35.810Z,13.26
2023-05-09T20:27:58.835Z,13.24
2023-05-09T20:30:21.874Z,13.20
2023-05-09T20:32:45.003Z,13.17
2023-05-09T20:35:08.284Z,13.15
2023-05-09T20:37:31.306Z,13.10
2023-05-09T20:39:54.235Z,13.05
2023-05-09T20:42:17.114Z,13.02
2023-05-09T20:44:42.234Z,12.98
2023-05-09T20:47:05.747Z,12.99
2023-05-09T20:49:28.630Z,12.93
2023-05-09T20:51:51.233Z,12.89
2023-05-09T20:54:13.944Z,12.92
2023-05-09T20:56:36.595Z,12.92
2023-05-09T20:59:04.092Z,12.88
2023-05-09T21:01:27.205Z,12.82
2023-05-09T21:03:49.974Z,12.79
2023-05-09T21:06:12.593Z,12.88
2023-05-09T21:08:35.352Z,12.85
2023-05-09T21:10:58.098Z,12.74
2023-05-09T21:13:21.404Z,12.78
2023-05-09T21:15:44.104Z,12.64
2023-05-09T21:18:06.893Z,12.67
2023-05-09T21:20:29.500Z,12.61
2023-05-09T21:22:52.149Z,12.58
2023-05-09T21:25:15.677Z,12.60
2023-05-09T21:27:38.591Z,12.47
2023-05-09T21:30:01.270Z,12.42
2023-05-09T21:32:24.245Z,12.40
2023-05-09T21:34:48.121Z,12.41
2023-05-09T21:37:10.932Z,12.36
2023-05-09T21:39:33.618Z,12.26
2023-05-09T21:41:56.354Z,12.29
2023-05-09T21:44:19.064Z,12.27
2023-05-09T21:46:43.521Z,12.27
2023-05-09T21:49:06.678Z,12.23
2023-05-09T21:51:29.550Z,12.30
2023-05-09T21:53:52.171Z,12.36
2023-05-09T21:56:15.259Z,12.37
2023-05-09T21:58:37.832Z,12.52
2023-05-09T22:01:00.713Z,12.48
2023-05-09T22:03:23.683Z,12.48
2023-05-09T22:05:46.520Z,12.55
2023-05-09T22:08:09.254Z,12.67
2023-05-09T22:10:32.489Z,12.62
2023-05-09T22:12:55.097Z,12.61
2023-05-09T22:15:17.868Z,12.62
2023-05-09T22:17:40.966Z,12.62
2023-05-09T22:20:04.437Z,12.65
2023-05-09T22:22:27.196Z,12.58
2023-05-09T22:24:49.960Z,12.60
2023-05-09T22:27:12.508Z,12.48
2023-05-09T22:29:35.234Z,12.55
2023-05-09T22:31:57.848Z,12.38
2023-05-09T22:34:20.651Z,12.41
2023-05-09T22:37:24.686Z,12.31
2023-05-09T22:39:47.474Z,12.31
2023-05-09T22:42:11.336Z,12.27
2023-05-09T22:44:34.072Z,12.36
2023-05-09T22:46:56.762Z,12.29
2023-05-09T22:49:19.429Z,12.30
2023-05-09T22:51:42.280Z,12.23
2023-05-09T22:54:05.126Z,12.20
2023-05-09T22:56:27.755Z,12.27
2023-05-09T22:58:50.722Z,12.24
2023-05-09T23:01:13.305Z,12.17
2023-05-09T23:03:36.498Z,12.12
2023-05-09T23:05:59.101Z,11.99
2023-05-09T23:08:21.805Z,11.92
2023-05-09T23:10:44.416Z,11.90
2023-05-09T23:13:07.904Z,11.79
2023-05-09T23:15:30.584Z,11.93
2023-05-09T23:17:53.390Z,11.94
2023-05-09T23:20:16.759Z,11.86
2023-05-09T23:22:39.554Z,11.76
2023-05-09T23:25:03.326Z,11.66
2023-05-09T23:27:26.514Z,11.59
2023-05-09T23:29:49.350Z,11.62
2023-05-09T23:32:11.928Z,11.61
2023-05-09T23:34:36.260Z,11.50
2023-05-09T23:36:59.148Z,11.42
2023-05-09T23:39:21.838Z,11.32
2023-05-09T23:41:44.775Z,11.37
2023-05-09T23:44:07.828Z,11.27
2023-05-09T23:46:30.776Z,11.17
2023-05-09T23:48:53.401Z,11.21
2023-05-09T23:51:16.103Z,11.28
2023-05-09T23:53:38.726Z,11.16
2023-05-09T23:56:02.412Z,11.13
2023-05-09T23:58:25.032Z,11.07
